sensor_id;sensor_type;location;lat;lon;timestamp;temperature;humidity
55711;DHT22;41612;51.994;5.880;2023-09-19T00:00:24;16.20;81.90
55711;DHT22;41612;51.994;5.880;2023-09-19T00:02:57;16.20;81.50
55711;DHT22;41612;51.994;5.880;2023-09-19T00:05:28;16.20;81.60
55711;DHT22;41612;51.994;5.880;2023-09-19T00:07:56;16.20;82.50
55711;DHT22;41612;51.994;5.880;2023-09-19T00:10:33;16.20;81.20
55711;DHT22;41612;51.994;5.880;2023-09-19T00:13:03;16.20;81.80
55711;DHT22;41612;51.994;5.880;2023-09-19T00:15:43;16.20;81.60
55711;DHT22;41612;51.994;5.880;2023-09-19T00:18:15;16.20;82.10
55711;DHT22;41612;51.994;5.880;2023-09-19T00:20:46;16.30;81.70
55711;DHT22;41612;51.994;5.880;2023-09-19T00:23:13;16.20;81.00
55711;DHT22;41612;51.994;5.880;2023-09-19T00:25:39;16.20;82.10
55711;DHT22;41612;51.994;5.880;2023-09-19T00:28:06;16.20;81.50
55711;DHT22;41612;51.994;5.880;2023-09-19T00:30:33;16.20;81.30
55711;DHT22;41612;51.994;5.880;2023-09-19T00:33:00;16.20;81.20
55711;DHT22;41612;51.994;5.880;2023-09-19T00:35:27;16.20;81.60
55711;DHT22;41612;51.994;5.880;2023-09-19T00:37:53;16.20;81.40
55711;DHT22;41612;51.994;5.880;2023-09-19T00:40:19;16.20;81.50
55711;DHT22;41612;51.994;5.880;2023-09-19T00:42:47;16.10;81.80
55711;DHT22;41612;51.994;5.880;2023-09-19T00:45:15;16.10;82.70
55711;DHT22;41612;51.994;5.880;2023-09-19T00:47:46;16.10;82.50
55711;DHT22;41612;51.994;5.880;2023-09-19T00:50:19;16.10;82.40
55711;DHT22;41612;51.994;5.880;2023-09-19T00:52:47;16.10;82.50
55711;DHT22;41612;51.994;5.880;2023-09-19T00:55:15;16.00;82.70
55711;DHT22;41612;51.994;5.880;2023-09-19T00:57:42;16.10;82.90
55711;DHT22;41612;51.994;5.880;2023-09-19T01:00:10;16.10;82.70
55711;DHT22;41612;51.994;5.880;2023-09-19T01:02:42;16.10;82.50
55711;DHT22;41612;51.994;5.880;2023-09-19T01:05:12;16.10;82.20
55711;DHT22;41612;51.994;5.880;2023-09-19T01:07:38;16.10;82.50
55711;DHT22;41612;51.994;5.880;2023-09-19T01:10:16;16.10;82.50
55711;DHT22;41612;51.994;5.880;2023-09-19T01:18:27;15.90;83.00
55711;DHT22;41612;51.994;5.880;2023-09-19T01:21:11;15.90;83.10
55711;DHT22;41612;51.994;5.880;2023-09-19T01:31:33;15.80;83.50
55711;DHT22;41612;51.994;5.880;2023-09-19T01:34:02;15.80;83.30
55711;DHT22;41612;51.994;5.880;2023-09-19T01:36:32;15.70;83.40
55711;DHT22;41612;51.994;5.880;2023-09-19T01:39:11;15.80;83.40
55711;DHT22;41612;51.994;5.880;2023-09-19T01:44:11;15.80;82.90
55711;DHT22;41612;51.994;5.880;2023-09-19T01:46:41;15.80;83.20
55711;DHT22;41612;51.994;5.880;2023-09-19T01:49:27;15.80;83.00
55711;DHT22;41612;51.994;5.880;2023-09-19T01:52:04;15.90;82.60
55711;DHT22;41612;51.994;5.880;2023-09-19T01:54:51;15.90;82.50
55711;DHT22;41612;51.994;5.880;2023-09-19T01:57:27;15.90;82.00
55711;DHT22;41612;51.994;5.880;2023-09-19T02:00:06;15.90;81.60
55711;DHT22;41612;51.994;5.880;2023-09-19T02:02:40;15.90;81.30
55711;DHT22;41612;51.994;5.880;2023-09-19T02:05:07;15.80;81.20
55711;DHT22;41612;51.994;5.880;2023-09-19T02:07:33;15.90;81.30
55711;DHT22;41612;51.994;5.880;2023-09-19T02:10:01;15.80;81.20
55711;DHT22;41612;51.994;5.880;2023-09-19T02:12:28;15.80;81.80
55711;DHT22;41612;51.994;5.880;2023-09-19T02:14:56;15.70;82.10
55711;DHT22;41612;51.994;5.880;2023-09-19T02:17:23;15.70;81.80
55711;DHT22;41612;51.994;5.880;2023-09-19T02:19:54;15.60;82.10
55711;DHT22;41612;51.994;5.880;2023-09-19T02:22:21;15.60;81.90
55711;DHT22;41612;51.994;5.880;2023-09-19T02:24:49;15.50;82.30
55711;DHT22;41612;51.994;5.880;2023-09-19T02:27:16;15.50;82.10
55711;DHT22;41612;51.994;5.880;2023-09-19T02:29:43;15.50;82.20
55711;DHT22;41612;51.994;5.880;2023-09-19T02:32:11;15.40;81.60
55711;DHT22;41612;51.994;5.880;2023-09-19T02:34:36;15.40;82.80
55711;DHT22;41612;51.994;5.880;2023-09-19T02:37:05;15.40;82.70
55711;DHT22;41612;51.994;5.880;2023-09-19T02:39:32;15.30;82.40
55711;DHT22;41612;51.994;5.880;2023-09-19T02:41:59;15.30;81.10
55711;DHT22;41612;51.994;5.880;2023-09-19T02:44:24;15.20;81.60
55711;DHT22;41612;51.994;5.880;2023-09-19T02:46:50;15.20;82.00
55711;DHT22;41612;51.994;5.880;2023-09-19T02:49:16;15.20;80.80
55711;DHT22;41612;51.994;5.880;2023-09-19T02:51:45;15.10;82.80
55711;DHT22;41612;51.994;5.880;2023-09-19T02:54:13;15.10;82.20
55711;DHT22;41612;51.994;5.880;2023-09-19T02:56:39;15.10;82.40
55711;DHT22;41612;51.994;5.880;2023-09-19T02:59:05;15.00;81.10
55711;DHT22;41612;51.994;5.880;2023-09-19T03:01:31;14.90;80.50
55711;DHT22;41612;51.994;5.880;2023-09-19T03:03:58;15.00;82.20
55711;DHT22;41612;51.994;5.880;2023-09-19T03:06:24;15.00;82.00
55711;DHT22;41612;51.994;5.880;2023-09-19T03:08:50;14.90;81.20
55711;DHT22;41612;51.994;5.880;2023-09-19T03:11:18;14.90;81.70
55711;DHT22;41612;51.994;5.880;2023-09-19T03:13:52;14.90;81.70
55711;DHT22;41612;51.994;5.880;2023-09-19T03:16:21;14.80;82.20
55711;DHT22;41612;51.994;5.880;2023-09-19T03:18:53;14.80;81.60
55711;DHT22;41612;51.994;5.880;2023-09-19T03:21:19;14.80;82.70
55711;DHT22;41612;51.994;5.880;2023-09-19T03:23:45;14.80;81.80
55711;DHT22;41612;51.994;5.880;2023-09-19T03:26:13;14.80;82.50
55711;DHT22;41612;51.994;5.880;2023-09-19T03:28:42;14.70;82.10
55711;DHT22;41612;51.994;5.880;2023-09-19T03:31:10;14.70;82.60
55711;DHT22;41612;51.994;5.880;2023-09-19T03:33:36;14.70;82.70
55711;DHT22;41612;51.994;5.880;2023-09-19T03:36:03;14.60;81.70
55711;DHT22;41612;51.994;5.880;2023-09-19T03:38:33;14.60;82.20
55711;DHT22;41612;51.994;5.880;2023-09-19T03:41:00;14.60;82.10
55711;DHT22;41612;51.994;5.880;2023-09-19T03:43:26;14.60;81.70
55711;DHT22;41612;51.994;5.880;2023-09-19T03:45:53;14.50;81.70
55711;DHT22;41612;51.994;5.880;2023-09-19T03:48:21;14.50;81.50
55711;DHT22;41612;51.994;5.880;2023-09-19T03:50:51;14.50;80.80
55711;DHT22;41612;51.994;5.880;2023-09-19T03:53:18;14.50;80.70
55711;DHT22;41612;51.994;5.880;2023-09-19T03:55:45;14.50;80.50
55711;DHT22;41612;51.994;5.880;2023-09-19T03:58:12;14.50;81.40
55711;DHT22;41612;51.994;5.880;2023-09-19T04:00:38;14.50;82.30
55711;DHT22;41612;51.994;5.880;2023-09-19T04:03:06;14.50;81.60
55711;DHT22;41612;51.994;5.880;2023-09-19T04:05:33;14.50;81.20
55711;DHT22;41612;51.994;5.880;2023-09-19T04:07:59;14.50;81.10
55711;DHT22;41612;51.994;5.880;2023-09-19T04:10:25;14.50;80.20
55711;DHT22;41612;51.994;5.880;2023-09-19T04:12:54;14.50;81.00
55711;DHT22;41612;51.994;5.880;2023-09-19T04:15:23;14.40;80.60
55711;DHT22;41612;51.994;5.880;2023-09-19T04:17:50;14.40;81.30
55711;DHT22;41612;51.994;5.880;2023-09-19T04:20:17;14.40;81.00
55711;DHT22;41612;51.994;5.880;2023-09-19T04:22:43;14.40;81.50
55711;DHT22;41612;51.994;5.880;2023-09-19T04:25:09;14.30;79.90
55711;DHT22;41612;51.994;5.880;2023-09-19T04:27:34;14.30;78.70
55711;DHT22;41612;51.994;5.880;2023-09-19T04:30:00;14.30;79.90
55711;DHT22;41612;51.994;5.880;2023-09-19T04:32:35;14.20;77.60
55711;DHT22;41612;51.994;5.880;2023-09-19T04:35:08;14.20;78.90
55711;DHT22;41612;51.994;5.880;2023-09-19T04:37:37;14.20;78.90
55711;DHT22;41612;51.994;5.880;2023-09-19T04:40:04;14.30;80.70
55711;DHT22;41612;51.994;5.880;2023-09-19T04:42:31;14.20;80.00
55711;DHT22;41612;51.994;5.880;2023-09-19T04:44:57;14.20;80.10
55711;DHT22;41612;51.994;5.880;2023-09-19T04:47:25;14.30;81.10
55711;DHT22;41612;51.994;5.880;2023-09-19T04:49:52;14.30;79.10
55711;DHT22;41612;51.994;5.880;2023-09-19T04:52:19;14.20;78.90
55711;DHT22;41612;51.994;5.880;2023-09-19T04:54:45;14.20;79.90
55711;DHT22;41612;51.994;5.880;2023-09-19T04:57:11;14.20;79.70
55711;DHT22;41612;51.994;5.880;2023-09-19T04:59:38;14.20;80.40
55711;DHT22;41612;51.994;5.880;2023-09-19T05:02:04;14.20;79.40
55711;DHT22;41612;51.994;5.880;2023-09-19T05:04:30;14.20;80.20
55711;DHT22;41612;51.994;5.880;2023-09-19T05:06:57;14.20;82.00
55711;DHT22;41612;51.994;5.880;2023-09-19T05:09:22;14.20;80.20
55711;DHT22;41612;51.994;5.880;2023-09-19T05:11:48;14.20;80.00
55711;DHT22;41612;51.994;5.880;2023-09-19T05:14:14;14.20;80.40
55711;DHT22;41612;51.994;5.880;2023-09-19T05:16:40;14.20;78.60
55711;DHT22;41612;51.994;5.880;2023-09-19T05:19:11;14.20;79.40
55711;DHT22;41612;51.994;5.880;2023-09-19T05:21:54;14.20;78.60
55711;DHT22;41612;51.994;5.880;2023-09-19T05:24:20;14.20;79.10
55711;DHT22;41612;51.994;5.880;2023-09-19T05:26:50;14.20;79.60
55711;DHT22;41612;51.994;5.880;2023-09-19T05:29:20;14.20;80.20
55711;DHT22;41612;51.994;5.880;2023-09-19T05:31:47;14.20;79.00
55711;DHT22;41612;51.994;5.880;2023-09-19T05:34:12;14.20;80.10
55711;DHT22;41612;51.994;5.880;2023-09-19T05:36:39;14.20;79.40
55711;DHT22;41612;51.994;5.880;2023-09-19T05:39:05;14.20;79.30
55711;DHT22;41612;51.994;5.880;2023-09-19T05:41:35;14.30;81.20
55711;DHT22;41612;51.994;5.880;2023-09-19T05:44:03;14.30;80.60
55711;DHT22;41612;51.994;5.880;2023-09-19T05:46:29;14.40;81.00
55711;DHT22;41612;51.994;5.880;2023-09-19T05:48:55;14.40;80.30
55711;DHT22;41612;51.994;5.880;2023-09-19T05:51:22;14.30;78.90
55711;DHT22;41612;51.994;5.880;2023-09-19T05:53:48;14.30;78.50
55711;DHT22;41612;51.994;5.880;2023-09-19T05:56:14;14.40;79.10
55711;DHT22;41612;51.994;5.880;2023-09-19T05:58:41;14.40;79.70
55711;DHT22;41612;51.994;5.880;2023-09-19T06:01:09;14.50;80.20
55711;DHT22;41612;51.994;5.880;2023-09-19T06:03:35;14.50;79.80
55711;DHT22;41612;51.994;5.880;2023-09-19T06:06:04;14.50;79.60
55711;DHT22;41612;51.994;5.880;2023-09-19T06:08:32;14.50;79.50
55711;DHT22;41612;51.994;5.880;2023-09-19T06:10:59;14.60;80.00
55711;DHT22;41612;51.994;5.880;2023-09-19T06:13:27;14.60;80.80
55711;DHT22;41612;51.994;5.880;2023-09-19T06:15:53;14.60;80.00
55711;DHT22;41612;51.994;5.880;2023-09-19T06:18:19;14.60;79.10
55711;DHT22;41612;51.994;5.880;2023-09-19T06:20:47;14.60;79.30
55711;DHT22;41612;51.994;5.880;2023-09-19T06:23:13;14.60;79.30
55711;DHT22;41612;51.994;5.880;2023-09-19T06:25:39;14.60;78.80
55711;DHT22;41612;51.994;5.880;2023-09-19T06:28:08;14.60;79.40
55711;DHT22;41612;51.994;5.880;2023-09-19T06:30:43;14.60;79.30
55711;DHT22;41612;51.994;5.880;2023-09-19T06:33:19;14.70;79.40
55711;DHT22;41612;51.994;5.880;2023-09-19T06:35:50;14.70;79.00
55711;DHT22;41612;51.994;5.880;2023-09-19T06:38:19;14.80;78.90
55711;DHT22;41612;51.994;5.880;2023-09-19T06:40:45;14.80;78.40
55711;DHT22;41612;51.994;5.880;2023-09-19T06:43:13;14.80;78.50
55711;DHT22;41612;51.994;5.880;2023-09-19T06:45:39;14.90;78.80
55711;DHT22;41612;51.994;5.880;2023-09-19T06:48:05;14.90;78.60
55711;DHT22;41612;51.994;5.880;2023-09-19T06:50:34;15.00;78.80
55711;DHT22;41612;51.994;5.880;2023-09-19T06:53:04;15.00;78.60
55711;DHT22;41612;51.994;5.880;2023-09-19T06:55:31;15.10;78.40
55711;DHT22;41612;51.994;5.880;2023-09-19T06:57:57;15.10;78.60
55711;DHT22;41612;51.994;5.880;2023-09-19T07:00:24;15.10;78.40
55711;DHT22;41612;51.994;5.880;2023-09-19T07:03:07;15.10;78.30
55711;DHT22;41612;51.994;5.880;2023-09-19T07:05:37;15.20;78.30
55711;DHT22;41612;51.994;5.880;2023-09-19T07:08:08;15.20;78.40
55711;DHT22;41612;51.994;5.880;2023-09-19T07:10:39;15.20;78.20
55711;DHT22;41612;51.994;5.880;2023-09-19T07:13:14;15.30;78.50
55711;DHT22;41612;51.994;5.880;2023-09-19T07:15:43;15.30;78.50
55711;DHT22;41612;51.994;5.880;2023-09-19T07:18:17;15.30;78.20
55711;DHT22;41612;51.994;5.880;2023-09-19T07:20:46;15.40;77.90
55711;DHT22;41612;51.994;5.880;2023-09-19T07:23:16;15.40;77.80
55711;DHT22;41612;51.994;5.880;2023-09-19T07:25:44;15.40;77.50
55711;DHT22;41612;51.994;5.880;2023-09-19T07:28:09;15.40;77.60
55711;DHT22;41612;51.994;5.880;2023-09-19T07:30:38;15.50;77.60
55711;DHT22;41612;51.994;5.880;2023-09-19T07:33:05;15.50;77.50
55711;DHT22;41612;51.994;5.880;2023-09-19T07:35:33;15.60;77.50
55711;DHT22;41612;51.994;5.880;2023-09-19T07:37:59;15.70;77.20
55711;DHT22;41612;51.994;5.880;2023-09-19T07:40:27;15.70;77.00
55711;DHT22;41612;51.994;5.880;2023-09-19T07:42:57;15.80;76.90
55711;DHT22;41612;51.994;5.880;2023-09-19T07:45:30;15.80;76.80
55711;DHT22;41612;51.994;5.880;2023-09-19T07:47:58;15.80;76.50
55711;DHT22;41612;51.994;5.880;2023-09-19T07:50:34;15.90;76.40
55711;DHT22;41612;51.994;5.880;2023-09-19T07:53:04;15.90;76.20
55711;DHT22;41612;51.994;5.880;2023-09-19T07:55:30;16.00;76.10
55711;DHT22;41612;51.994;5.880;2023-09-19T07:58:01;16.00;75.90
55711;DHT22;41612;51.994;5.880;2023-09-19T08:00:29;16.00;75.90
55711;DHT22;41612;51.994;5.880;2023-09-19T08:02:55;16.10;76.10
55711;DHT22;41612;51.994;5.880;2023-09-19T08:05:21;16.20;75.40
55711;DHT22;41612;51.994;5.880;2023-09-19T08:07:48;16.20;75.20
55711;DHT22;41612;51.994;5.880;2023-09-19T08:10:14;16.30;75.20
55711;DHT22;41612;51.994;5.880;2023-09-19T08:12:48;16.30;75.20
55711;DHT22;41612;51.994;5.880;2023-09-19T08:15:18;16.30;74.80
55711;DHT22;41612;51.994;5.880;2023-09-19T08:17:53;16.30;74.90
55711;DHT22;41612;51.994;5.880;2023-09-19T08:20:24;16.40;75.00
55711;DHT22;41612;51.994;5.880;2023-09-19T08:22:50;16.40;74.90
55711;DHT22;41612;51.994;5.880;2023-09-19T08:25:26;16.40;74.60
55711;DHT22;41612;51.994;5.880;2023-09-19T08:27:54;16.50;74.70
55711;DHT22;41612;51.994;5.880;2023-09-19T08:30:29;16.60;74.70
55711;DHT22;41612;51.994;5.880;2023-09-19T08:33:01;16.70;74.50
55711;DHT22;41612;51.994;5.880;2023-09-19T08:35:32;16.80;74.10
55711;DHT22;41612;51.994;5.880;2023-09-19T08:38:04;16.90;73.60
55711;DHT22;41612;51.994;5.880;2023-09-19T08:40:38;17.00;73.70
55711;DHT22;41612;51.994;5.880;2023-09-19T08:43:06;17.00;73.30
55711;DHT22;41612;51.994;5.880;2023-09-19T08:45:33;17.10;73.10
55711;DHT22;41612;51.994;5.880;2023-09-19T08:50:32;17.20;72.60
55711;DHT22;41612;51.994;5.880;2023-09-19T08:53:11;17.30;72.60
55711;DHT22;41612;51.994;5.880;2023-09-19T08:55:51;17.30;72.40
55711;DHT22;41612;51.994;5.880;2023-09-19T08:58:36;17.30;72.60
55711;DHT22;41612;51.994;5.880;2023-09-19T09:01:11;17.40;72.20
55711;DHT22;41612;51.994;5.880;2023-09-19T09:03:39;17.40;71.80
55711;DHT22;41612;51.994;5.880;2023-09-19T09:06:14;17.50;72.50
55711;DHT22;41612;51.994;5.880;2023-09-19T09:08:45;17.70;71.70
55711;DHT22;41612;51.994;5.880;2023-09-19T09:11:19;17.80;71.10
55711;DHT22;41612;51.994;5.880;2023-09-19T09:13:45;17.80;70.00
55711;DHT22;41612;51.994;5.880;2023-09-19T09:16:17;17.80;70.40
55711;DHT22;41612;51.994;5.880;2023-09-19T09:18:45;17.80;70.10
55711;DHT22;41612;51.994;5.880;2023-09-19T09:21:12;17.80;70.10
55711;DHT22;41612;51.994;5.880;2023-09-19T09:23:39;18.00;69.90
55711;DHT22;41612;51.994;5.880;2023-09-19T09:26:07;18.20;69.30
55711;DHT22;41612;51.994;5.880;2023-09-19T09:28:46;18.50;68.10
55711;DHT22;41612;51.994;5.880;2023-09-19T09:31:25;18.60;67.60
55711;DHT22;41612;51.994;5.880;2023-09-19T09:33:55;18.70;67.50
55711;DHT22;41612;51.994;5.880;2023-09-19T09:36:36;18.80;67.20
55711;DHT22;41612;51.994;5.880;2023-09-19T09:39:05;18.80;66.10
55711;DHT22;41612;51.994;5.880;2023-09-19T09:41:49;18.80;66.30
55711;DHT22;41612;51.994;5.880;2023-09-19T09:44:17;18.90;65.80
55711;DHT22;41612;51.994;5.880;2023-09-19T09:46:46;19.00;64.60
55711;DHT22;41612;51.994;5.880;2023-09-19T09:49:25;19.20;64.20
55711;DHT22;41612;51.994;5.880;2023-09-19T09:52:03;19.60;63.30
55711;DHT22;41612;51.994;5.880;2023-09-19T09:55:02;19.70;62.50
55711;DHT22;41612;51.994;5.880;2023-09-19T09:57:31;19.70;62.40
55711;DHT22;41612;51.994;5.880;2023-09-19T09:59:58;19.60;62.80
55711;DHT22;41612;51.994;5.880;2023-09-19T10:02:35;19.50;63.10
55711;DHT22;41612;51.994;5.880;2023-09-19T10:05:19;19.60;63.20
55711;DHT22;41612;51.994;5.880;2023-09-19T10:07:49;19.80;62.50
55711;DHT22;41612;51.994;5.880;2023-09-19T10:10:36;19.90;61.10
55711;DHT22;41612;51.994;5.880;2023-09-19T10:13:20;19.90;61.40
55711;DHT22;41612;51.994;5.880;2023-09-19T10:15:51;19.90;61.60
55711;DHT22;41612;51.994;5.880;2023-09-19T10:18:25;20.00;61.70
55711;DHT22;41612;51.994;5.880;2023-09-19T10:20:51;20.20;61.20
55711;DHT22;41612;51.994;5.880;2023-09-19T10:23:19;20.30;59.90
55711;DHT22;41612;51.994;5.880;2023-09-19T10:25:49;20.40;59.50
55711;DHT22;41612;51.994;5.880;2023-09-19T10:28:17;20.40;59.60
55711;DHT22;41612;51.994;5.880;2023-09-19T10:30:48;20.40;59.40
55711;DHT22;41612;51.994;5.880;2023-09-19T10:33:17;20.40;59.20
55711;DHT22;41612;51.994;5.880;2023-09-19T10:35:45;20.50;59.40
55711;DHT22;41612;51.994;5.880;2023-09-19T10:38:12;20.50;59.80
55711;DHT22;41612;51.994;5.880;2023-09-19T10:40:39;20.60;59.60
55711;DHT22;41612;51.994;5.880;2023-09-19T10:43:12;20.70;59.40
55711;DHT22;41612;51.994;5.880;2023-09-19T10:45:39;20.70;59.10
55711;DHT22;41612;51.994;5.880;2023-09-19T10:48:06;20.60;58.70
55711;DHT22;41612;51.994;5.880;2023-09-19T10:53:11;20.60;59.40
55711;DHT22;41612;51.994;5.880;2023-09-19T10:55:38;20.70;60.10
55711;DHT22;41612;51.994;5.880;2023-09-19T10:58:05;20.70;59.30
55711;DHT22;41612;51.994;5.880;2023-09-19T11:00:58;20.50;59.40
55711;DHT22;41612;51.994;5.880;2023-09-19T11:03:44;20.50;60.10
55711;DHT22;41612;51.994;5.880;2023-09-19T11:06:18;20.40;59.80
55711;DHT22;41612;51.994;5.880;2023-09-19T11:09:03;20.30;60.70
55711;DHT22;41612;51.994;5.880;2023-09-19T11:11:41;20.20;60.60
55711;DHT22;41612;51.994;5.880;2023-09-19T11:30:51;20.60;59.90
55711;DHT22;41612;51.994;5.880;2023-09-19T11:33:32;20.30;60.40
55711;DHT22;41612;51.994;5.880;2023-09-19T11:36:35;20.10;60.60
55711;DHT22;41612;51.994;5.880;2023-09-19T11:39:02;19.90;61.10
55711;DHT22;41612;51.994;5.880;2023-09-19T11:41:38;19.80;62.30
55711;DHT22;41612;51.994;5.880;2023-09-19T11:46:54;20.00;62.20
55711;DHT22;41612;51.994;5.880;2023-09-19T11:49:32;20.60;60.70
55711;DHT22;41612;51.994;5.880;2023-09-19T11:51:59;21.00;59.70
55711;DHT22;41612;51.994;5.880;2023-09-19T11:54:34;21.70;57.80
55711;DHT22;41612;51.994;5.880;2023-09-19T11:57:02;22.50;55.90
55711;DHT22;41612;51.994;5.880;2023-09-19T11:59:29;23.60;52.60
55711;DHT22;41612;51.994;5.880;2023-09-19T12:01:56;23.70;51.60
55711;DHT22;41612;51.994;5.880;2023-09-19T12:04:39;23.30;51.50
55711;DHT22;41612;51.994;5.880;2023-09-19T12:07:08;22.80;53.10
55711;DHT22;41612;51.994;5.880;2023-09-19T12:09:41;22.50;53.90
55711;DHT22;41612;51.994;5.880;2023-09-19T12:12:28;23.00;52.20
55711;DHT22;41612;51.994;5.880;2023-09-19T12:14:56;23.20;52.20
55711;DHT22;41612;51.994;5.880;2023-09-19T12:17:38;23.50;51.30
55711;DHT22;41612;51.994;5.880;2023-09-19T12:20:05;23.80;50.40
55711;DHT22;41612;51.994;5.880;2023-09-19T12:22:44;23.80;50.20
55711;DHT22;41612;51.994;5.880;2023-09-19T12:25:13;23.70;50.40
55711;DHT22;41612;51.994;5.880;2023-09-19T12:27:49;23.80;50.60
55711;DHT22;41612;51.994;5.880;2023-09-19T12:30:18;24.20;50.20
55711;DHT22;41612;51.994;5.880;2023-09-19T12:32:46;24.10;48.90
55711;DHT22;41612;51.994;5.880;2023-09-19T12:35:33;24.40;49.00
55711;DHT22;41612;51.994;5.880;2023-09-19T12:38:04;23.70;50.90
55711;DHT22;41612;51.994;5.880;2023-09-19T12:40:32;22.80;51.30
55711;DHT22;41612;51.994;5.880;2023-09-19T12:43:00;22.10;54.10
55711;DHT22;41612;51.994;5.880;2023-09-19T12:45:30;21.60;55.00
55711;DHT22;41612;51.994;5.880;2023-09-19T12:48:24;21.10;56.40
55711;DHT22;41612;51.994;5.880;2023-09-19T12:51:12;20.70;59.40
55711;DHT22;41612;51.994;5.880;2023-09-19T12:53:45;20.50;59.30
55711;DHT22;41612;51.994;5.880;2023-09-19T12:56:15;20.40;59.90
55711;DHT22;41612;51.994;5.880;2023-09-19T12:58:54;20.20;60.20
55711;DHT22;41612;51.994;5.880;2023-09-19T13:01:20;20.20;62.30
55711;DHT22;41612;51.994;5.880;2023-09-19T13:04:18;20.20;60.00
55711;DHT22;41612;51.994;5.880;2023-09-19T13:06:48;20.10;62.30
55711;DHT22;41612;51.994;5.880;2023-09-19T13:09:15;20.00;59.80
55711;DHT22;41612;51.994;5.880;2023-09-19T13:11:41;19.90;61.30
55711;DHT22;41612;51.994;5.880;2023-09-19T13:22:43;20.10;61.90
55711;DHT22;41612;51.994;5.880;2023-09-19T13:25:20;20.10;61.20
55711;DHT22;41612;51.994;5.880;2023-09-19T13:27:51;20.00;60.20
55711;DHT22;41612;51.994;5.880;2023-09-19T13:30:18;20.00;60.40
55711;DHT22;41612;51.994;5.880;2023-09-19T13:32:44;20.00;61.00
55711;DHT22;41612;51.994;5.880;2023-09-19T13:35:13;20.00;61.40
55711;DHT22;41612;51.994;5.880;2023-09-19T13:37:40;19.80;61.30
55711;DHT22;41612;51.994;5.880;2023-09-19T13:40:19;19.80;62.70
55711;DHT22;41612;51.994;5.880;2023-09-19T13:42:44;19.80;63.50
55711;DHT22;41612;51.994;5.880;2023-09-19T13:45:10;19.70;62.00
55711;DHT22;41612;51.994;5.880;2023-09-19T13:47:38;19.70;62.40
55711;DHT22;41612;51.994;5.880;2023-09-19T13:50:04;19.70;62.90
55711;DHT22;41612;51.994;5.880;2023-09-19T13:52:31;19.70;62.70
55711;DHT22;41612;51.994;5.880;2023-09-19T13:54:58;19.70;63.50
55711;DHT22;41612;51.994;5.880;2023-09-19T13:57:25;19.80;63.00
55711;DHT22;41612;51.994;5.880;2023-09-19T13:59:51;19.90;62.10
55711;DHT22;41612;51.994;5.880;2023-09-19T14:02:17;20.10;61.20
55711;DHT22;41612;51.994;5.880;2023-09-19T14:04:49;20.20;62.10
55711;DHT22;41612;51.994;5.880;2023-09-19T14:07:15;20.30;60.50
55711;DHT22;41612;51.994;5.880;2023-09-19T14:09:41;20.60;61.00
55711;DHT22;41612;51.994;5.880;2023-09-19T14:12:07;21.00;59.70
55711;DHT22;41612;51.994;5.880;2023-09-19T14:14:34;21.30;58.30
55711;DHT22;41612;51.994;5.880;2023-09-19T14:17:01;21.50;59.00
55711;DHT22;41612;51.994;5.880;2023-09-19T14:19:27;21.50;56.20
55711;DHT22;41612;51.994;5.880;2023-09-19T14:21:53;21.40;56.90
55711;DHT22;41612;51.994;5.880;2023-09-19T14:24:22;21.30;59.60
55711;DHT22;41612;51.994;5.880;2023-09-19T14:26:49;21.20;58.30
55711;DHT22;41612;51.994;5.880;2023-09-19T14:29:16;21.20;58.10
55711;DHT22;41612;51.994;5.880;2023-09-19T14:31:42;21.00;60.10
55711;DHT22;41612;51.994;5.880;2023-09-19T14:34:08;20.90;59.10
55711;DHT22;41612;51.994;5.880;2023-09-19T14:36:38;20.70;60.00
55711;DHT22;41612;51.994;5.880;2023-09-19T14:39:04;20.50;59.90
55711;DHT22;41612;51.994;5.880;2023-09-19T14:41:31;20.30;61.30
55711;DHT22;41612;51.994;5.880;2023-09-19T14:43:57;20.20;62.70
55711;DHT22;41612;51.994;5.880;2023-09-19T14:46:23;20.20;61.40
55711;DHT22;41612;51.994;5.880;2023-09-19T14:48:52;20.20;62.80
55711;DHT22;41612;51.994;5.880;2023-09-19T14:51:18;20.10;62.10
55711;DHT22;41612;51.994;5.880;2023-09-19T14:53:45;20.10;61.30
55711;DHT22;41612;51.994;5.880;2023-09-19T14:56:12;20.00;61.30
55711;DHT22;41612;51.994;5.880;2023-09-19T14:58:38;20.00;61.90
55711;DHT22;41612;51.994;5.880;2023-09-19T15:01:12;20.10;63.70
55711;DHT22;41612;51.994;5.880;2023-09-19T15:03:39;20.00;64.20
55711;DHT22;41612;51.994;5.880;2023-09-19T15:06:15;20.00;63.20
55711;DHT22;41612;51.994;5.880;2023-09-19T15:08:47;20.00;62.20
55711;DHT22;41612;51.994;5.880;2023-09-19T15:11:17;20.00;62.20
55711;DHT22;41612;51.994;5.880;2023-09-19T15:13:44;19.90;63.40
55711;DHT22;41612;51.994;5.880;2023-09-19T15:16:12;19.90;64.20
55711;DHT22;41612;51.994;5.880;2023-09-19T15:18:42;19.80;63.40
55711;DHT22;41612;51.994;5.880;2023-09-19T15:21:10;19.80;62.90
55711;DHT22;41612;51.994;5.880;2023-09-19T15:23:37;19.80;64.10
55711;DHT22;41612;51.994;5.880;2023-09-19T15:26:04;19.70;64.80
55711;DHT22;41612;51.994;5.880;2023-09-19T15:28:30;19.70;64.40
55711;DHT22;41612;51.994;5.880;2023-09-19T15:30:59;19.70;64.50
55711;DHT22;41612;51.994;5.880;2023-09-19T15:33:30;19.70;64.20
55711;DHT22;41612;51.994;5.880;2023-09-19T15:36:09;19.70;64.70
55711;DHT22;41612;51.994;5.880;2023-09-19T15:39:05;19.70;65.20
55711;DHT22;41612;51.994;5.880;2023-09-19T15:41:32;19.60;64.80
55711;DHT22;41612;51.994;5.880;2023-09-19T15:43:59;19.60;65.60
55711;DHT22;41612;51.994;5.880;2023-09-19T15:47:11;19.60;65.30
55711;DHT22;41612;51.994;5.880;2023-09-19T15:50:29;19.50;65.40
55711;DHT22;41612;51.994;5.880;2023-09-19T15:53:04;19.50;65.40
55711;DHT22;41612;51.994;5.880;2023-09-19T15:55:31;19.50;64.40
55711;DHT22;41612;51.994;5.880;2023-09-19T15:57:57;19.50;65.40
55711;DHT22;41612;51.994;5.880;2023-09-19T16:00:22;19.40;65.20
55711;DHT22;41612;51.994;5.880;2023-09-19T16:03:01;19.50;66.00
55711;DHT22;41612;51.994;5.880;2023-09-19T16:45:16;19.20;67.20
55711;DHT22;41612;51.994;5.880;2023-09-19T17:01:12;19.20;67.30
55711;DHT22;41612;51.994;5.880;2023-09-19T17:03:39;19.20;67.30
55711;DHT22;41612;51.994;5.880;2023-09-19T17:06:10;19.20;67.80
55711;DHT22;41612;51.994;5.880;2023-09-19T17:08:39;19.20;66.90
55711;DHT22;41612;51.994;5.880;2023-09-19T17:11:09;19.20;67.20
55711;DHT22;41612;51.994;5.880;2023-09-19T17:13:42;19.20;67.10
55711;DHT22;41612;51.994;5.880;2023-09-19T17:18:35;19.20;66.40
55711;DHT22;41612;51.994;5.880;2023-09-19T17:21:02;19.20;66.90
55711;DHT22;41612;51.994;5.880;2023-09-19T17:23:31;19.20;66.70
55711;DHT22;41612;51.994;5.880;2023-09-19T17:26:06;19.20;67.40
55711;DHT22;41612;51.994;5.880;2023-09-19T17:28:34;19.20;68.00
55711;DHT22;41612;51.994;5.880;2023-09-19T17:31:10;19.10;68.30
55711;DHT22;41612;51.994;5.880;2023-09-19T17:33:37;19.00;68.80